createdAt,value
2018-07-24T00:01:39.817Z,99.90
2018-07-24T00:04:08.239Z,99.90
2018-07-24T00:06:36.635Z,99.90
2018-07-24T00:09:07.557Z,99.90
2018-07-24T00:11:36.053Z,99.90
2018-07-24T00:14:04.541Z,99.90
2018-07-24T00:16:33.012Z,99.90
2018-07-24T00:21:29.744Z,99.90
2018-07-24T00:23:58.424Z,99.90
2018-07-24T00:26:26.836Z,99.90
2018-07-24T00:28:55.237Z,99.90
2018-07-24T00:31:23.700Z,99.90
2018-07-24T00:33:52.127Z,99.90
2018-07-24T00:36:20.520Z,99.90
2018-07-24T00:38:49.316Z,99.90
2018-07-24T00:41:17.759Z,99.90
2018-07-24T00:43:46.228Z,99.90
2018-07-24T00:46:14.958Z,99.90
2018-07-24T00:48:43.388Z,99.90
2018-07-24T00:51:11.807Z,99.90
2018-07-24T00:53:40.297Z,99.90
2018-07-24T00:56:08.693Z,99.90
2018-07-24T00:58:37.209Z,99.90
2018-07-24T01:01:05.599Z,99.90
2018-07-24T01:03:34.048Z,99.90
2018-07-24T01:06:02.576Z,99.90
2018-07-24T01:08:31.022Z,99.90
2018-07-24T01:10:59.403Z,99.90
2018-07-24T01:13:27.821Z,99.90
2018-07-24T01:15:56.337Z,99.90
2018-07-24T01:18:24.767Z,99.90
2018-07-24T01:20:53.181Z,99.90
2018-07-24T01:23:21.592Z,99.90
2018-07-24T01:25:49.984Z,99.90
2018-07-24T01:28:18.368Z,99.90
2018-07-24T01:33:15.345Z,99.90
2018-07-24T01:35:43.779Z,99.90
2018-07-24T01:38:12.135Z,99.90
2018-07-24T01:40:40.601Z,99.90
2018-07-24T01:43:09.016Z,99.90
2018-07-24T01:45:37.570Z,99.90
2018-07-24T01:48:05.992Z,99.90
2018-07-24T01:50:34.448Z,99.90
2018-07-24T01:53:02.854Z,99.90
2018-07-24T01:55:31.294Z,99.90
2018-07-24T01:57:59.705Z,99.90
2018-07-24T02:00:28.089Z,99.90
2018-07-24T02:02:56.500Z,99.90
2018-07-24T02:05:24.893Z,99.90
2018-07-24T02:10:21.385Z,99.90
2018-07-24T02:12:49.837Z,99.90
2018-07-24T02:15:18.277Z,99.90
2018-07-24T02:17:46.795Z,99.90
2018-07-24T02:20:15.280Z,99.90
2018-07-24T02:22:43.716Z,99.90
2018-07-24T02:25:12.151Z,99.90
2018-07-24T02:27:40.536Z,99.90
2018-07-24T02:30:09.052Z,99.90
2018-07-24T02:32:37.604Z,99.90
2018-07-24T02:35:06.048Z,99.90
2018-07-24T02:37:34.444Z,99.90
2018-07-24T02:40:02.871Z,99.90
2018-07-24T02:42:31.325Z,99.90
2018-07-24T02:44:59.800Z,99.90
2018-07-24T02:47:28.301Z,99.90
2018-07-24T02:49:56.861Z,99.90
2018-07-24T02:52:25.243Z,99.90
2018-07-24T02:54:53.682Z,99.90
2018-07-24T02:57:22.137Z,99.90
2018-07-24T02:59:50.588Z,99.90
2018-07-24T03:02:18.988Z,99.90
2018-07-24T03:04:47.447Z,99.90
2018-07-24T03:07:15.895Z,99.90
2018-07-24T03:09:44.520Z,99.90
2018-07-24T03:12:13.013Z,99.90
2018-07-24T03:14:41.396Z,99.90
2018-07-24T03:17:09.804Z,99.90
2018-07-24T03:19:38.173Z,99.90
2018-07-24T03:22:06.624Z,99.90
2018-07-24T03:24:35.013Z,99.90
2018-07-24T03:27:03.480Z,99.90
2018-07-24T03:29:31.900Z,99.90
2018-07-24T03:32:00.349Z,99.90
2018-07-24T03:34:28.838Z,99.90
2018-07-24T03:36:57.221Z,99.90
2018-07-24T03:39:25.700Z,99.90
2018-07-24T03:41:54.124Z,99.90
2018-07-24T03:44:22.570Z,99.90
2018-07-24T03:46:50.978Z,99.90
2018-07-24T03:49:19.480Z,99.90
2018-07-24T03:51:47.881Z,99.90
2018-07-24T03:54:16.459Z,99.90
2018-07-24T03:56:44.816Z,99.90
2018-07-24T03:59:13.288Z,99.90
2018-07-24T04:04:09.818Z,99.90
2018-07-24T04:06:38.200Z,99.90
2018-07-24T04:09:08.637Z,99.90
2018-07-24T04:11:37.052Z,99.90
2018-07-24T04:14:05.512Z,99.90
2018-07-24T04:16:33.908Z,99.90
2018-07-24T04:19:02.329Z,99.90
2018-07-24T04:21:30.744Z,99.90
2018-07-24T04:23:59.177Z,99.90
2018-07-24T04:26:27.598Z,99.90
2018-07-24T04:28:55.969Z,99.90
2018-07-24T04:31:24.432Z,99.90
2018-07-24T04:33:52.832Z,99.90
2018-07-24T04:36:21.259Z,99.90
2018-07-24T04:38:49.667Z,99.90
2018-07-24T04:41:18.089Z,99.90
2018-07-24T04:43:46.609Z,99.90
2018-07-24T04:46:16.083Z,99.90
2018-07-24T04:51:12.686Z,99.90
2018-07-24T04:53:41.072Z,99.90
2018-07-24T04:56:09.488Z,99.90
2018-07-24T04:58:37.892Z,99.90
2018-07-24T05:01:06.492Z,99.90
2018-07-24T05:03:34.943Z,99.90
2018-07-24T05:06:03.321Z,99.90
2018-07-24T05:08:31.768Z,99.90
2018-07-24T05:11:00.176Z,99.90
2018-07-24T05:13:28.632Z,99.90
2018-07-24T05:15:57.076Z,99.90
2018-07-24T05:18:25.481Z,99.90
2018-07-24T05:20:53.923Z,99.90
2018-07-24T05:23:22.357Z,99.90
2018-07-24T05:25:50.843Z,99.90
2018-07-24T05:28:19.195Z,99.90
2018-07-24T05:30:47.603Z,99.90
2018-07-24T05:33:16.031Z,99.90
2018-07-24T05:35:44.452Z,99.90
2018-07-24T05:38:12.946Z,99.90
2018-07-24T05:40:41.404Z,99.90
2018-07-24T05:43:09.845Z,99.90
2018-07-24T05:45:38.261Z,99.90
2018-07-24T05:48:06.661Z,99.90
2018-07-24T05:50:35.070Z,99.90
2018-07-24T05:53:03.519Z,99.90
2018-07-24T05:55:31.918Z,99.90
2018-07-24T05:58:00.338Z,99.90
2018-07-24T06:00:28.796Z,99.90
2018-07-24T06:02:57.214Z,99.90
2018-07-24T06:05:25.631Z,99.90
2018-07-24T06:07:54.045Z,99.90
2018-07-24T06:10:22.473Z,99.90
2018-07-24T06:12:50.846Z,99.90
2018-07-24T06:15:19.232Z,99.90
2018-07-24T06:17:47.650Z,99.90
2018-07-24T06:20:16.096Z,99.90
2018-07-24T06:22:44.552Z,99.90
2018-07-24T06:25:12.937Z,99.90
2018-07-24T06:27:41.341Z,99.90
2018-07-24T06:30:09.744Z,99.90
2018-07-24T06:32:38.164Z,99.90
2018-07-24T06:35:06.649Z,99.90
2018-07-24T06:37:34.991Z,99.90
2018-07-24T06:40:03.428Z,99.90
2018-07-24T06:42:31.878Z,99.90
2018-07-24T06:45:00.309Z,99.90
2018-07-24T06:47:28.733Z,99.90
2018-07-24T06:49:57.334Z,99.90
2018-07-24T06:52:25.720Z,99.90
2018-07-24T06:54:54.119Z,99.90
2018-07-24T06:57:22.543Z,99.90
2018-07-24T06:59:50.983Z,99.90
2018-07-24T07:02:19.484Z,99.90
2018-07-24T07:04:47.938Z,99.90
2018-07-24T07:07:16.396Z,99.90
2018-07-24T07:09:44.772Z,99.90
2018-07-24T07:12:13.444Z,99.90
2018-07-24T07:14:41.852Z,99.90
2018-07-24T07:17:10.282Z,99.90
2018-07-24T07:19:38.715Z,99.90
2018-07-24T07:22:07.123Z,99.90
2018-07-24T07:24:35.541Z,99.90
2018-07-24T07:27:03.975Z,99.90
2018-07-24T07:29:32.392Z,99.90
2018-07-24T07:32:00.884Z,99.90
2018-07-24T07:34:29.264Z,99.90
2018-07-24T07:36:57.669Z,99.90
2018-07-24T07:39:26.052Z,99.90
2018-07-24T07:41:54.413Z,99.90
2018-07-24T07:44:22.844Z,99.90
2018-07-24T07:46:51.237Z,99.90
2018-07-24T07:49:19.673Z,99.90
2018-07-24T07:51:48.071Z,99.90
2018-07-24T07:54:16.494Z,99.90
2018-07-24T07:56:44.963Z,99.90
2018-07-24T07:59:13.405Z,99.90
2018-07-24T08:01:41.862Z,99.90
2018-07-24T08:04:10.304Z,99.90
2018-07-24T08:06:38.740Z,99.90
2018-07-24T08:09:08.631Z,99.90
2018-07-24T08:11:37.024Z,99.90
2018-07-24T08:14:05.476Z,99.90
2018-07-24T08:16:33.872Z,99.90
2018-07-24T08:19:02.283Z,99.90
2018-07-24T08:21:30.751Z,99.90
2018-07-24T08:23:59.141Z,99.90
2018-07-24T08:26:27.716Z,99.90
2018-07-24T08:28:56.147Z,99.90
2018-07-24T08:31:24.557Z,99.90
2018-07-24T08:33:52.988Z,99.90
2018-07-24T08:36:21.395Z,99.90
2018-07-24T08:38:49.807Z,99.90
2018-07-24T08:41:18.201Z,99.90
2018-07-24T08:43:46.668Z,99.90
2018-07-24T08:46:15.088Z,99.90
2018-07-24T08:48:43.469Z,99.90
2018-07-24T08:51:11.908Z,99.90
2018-07-24T08:53:40.606Z,99.90
2018-07-24T08:56:08.738Z,99.90
2018-07-24T08:58:37.211Z,99.90
2018-07-24T09:01:05.608Z,99.90
2018-07-24T09:03:34.214Z,99.90
2018-07-24T09:06:02.516Z,99.90
2018-07-24T09:08:30.933Z,99.90
2018-07-24T09:10:59.365Z,99.90
2018-07-24T09:13:28.109Z,99.90
2018-07-24T09:15:56.609Z,99.90
2018-07-24T09:18:25.060Z,99.90
2018-07-24T09:20:53.609Z,99.90
2018-07-24T09:23:22.176Z,99.90
2018-07-24T09:25:50.737Z,99.90
2018-07-24T09:28:19.136Z,99.90
2018-07-24T09:30:47.615Z,99.90
2018-07-24T09:33:15.989Z,99.90
2018-07-24T09:35:44.404Z,99.90
2018-07-24T09:38:12.832Z,99.20
2018-07-24T09:40:41.452Z,99.70
2018-07-24T09:43:09.836Z,99.40
2018-07-24T09:45:38.323Z,99.90
2018-07-24T09:48:06.735Z,99.90
2018-07-24T09:50:35.164Z,99.90
2018-07-24T09:53:03.676Z,99.90
2018-07-24T09:55:32.075Z,99.90
2018-07-24T09:58:00.532Z,99.90
2018-07-24T10:00:34.446Z,99.30
2018-07-24T10:03:02.849Z,98.80
2018-07-24T10:05:31.389Z,99.00
2018-07-24T10:07:59.713Z,98.50
2018-07-24T10:10:28.182Z,98.40
2018-07-24T10:12:56.731Z,98.80
2018-07-24T10:15:25.108Z,99.00
2018-07-24T10:17:53.566Z,99.30
2018-07-24T10:20:22.041Z,98.10
2018-07-24T10:22:50.627Z,98.40
2018-07-24T10:25:19.051Z,97.60
2018-07-24T10:27:47.448Z,98.20
2018-07-24T10:30:15.942Z,98.10
2018-07-24T10:32:44.467Z,97.20
2018-07-24T10:35:12.932Z,97.70
2018-07-24T10:37:41.380Z,97.20
2018-07-24T10:40:09.784Z,97.60
2018-07-24T10:42:38.293Z,97.60
2018-07-24T10:45:06.856Z,96.80
2018-07-24T10:47:35.340Z,97.10
2018-07-24T10:50:03.811Z,96.90
2018-07-24T10:52:32.248Z,97.60
2018-07-24T10:55:00.686Z,96.40
2018-07-24T10:57:29.192Z,96.70
2018-07-24T10:59:57.617Z,97.10
2018-07-24T11:02:26.007Z,96.60
2018-07-24T11:05:01.110Z,96.50
2018-07-24T11:07:29.512Z,96.10
2018-07-24T11:09:58.068Z,95.30
2018-07-24T11:12:26.527Z,95.30
2018-07-24T11:14:54.981Z,94.90
2018-07-24T11:17:23.408Z,94.70
2018-07-24T11:19:51.791Z,95.90
2018-07-24T11:22:20.301Z,95.50
2018-07-24T11:24:49.553Z,93.90
2018-07-24T11:27:17.974Z,94.90
2018-07-24T11:29:46.499Z,94.80
2018-07-24T11:32:14.935Z,94.40
2018-07-24T11:34:43.365Z,94.20
2018-07-24T11:37:11.824Z,92.80
2018-07-24T11:39:40.224Z,94.10
2018-07-24T11:42:08.847Z,92.50
2018-07-24T11:44:37.285Z,93.40
2018-07-24T11:47:05.741Z,93.10
2018-07-24T11:49:34.176Z,93.90
2018-07-24T11:52:02.633Z,94.30
2018-07-24T11:54:31.228Z,93.60
2018-07-24T11:56:59.628Z,93.50
2018-07-24T11:59:28.077Z,93.10
2018-07-24T12:01:56.490Z,92.60
2018-07-24T12:04:25.220Z,93.30
2018-07-24T12:06:54.029Z,92.10
2018-07-24T12:09:22.493Z,92.20
2018-07-24T12:11:50.907Z,93.20
2018-07-24T12:14:19.349Z,93.30
2018-07-24T12:16:47.767Z,91.90
2018-07-24T12:19:16.289Z,91.30
2018-07-24T12:21:44.724Z,90.90
2018-07-24T12:24:13.764Z,90.50
2018-07-24T12:26:42.417Z,90.50
2018-07-24T12:29:11.104Z,90.70
2018-07-24T12:31:39.505Z,90.70
2018-07-24T12:34:07.960Z,90.70
2018-07-24T12:36:36.381Z,90.20
2018-07-24T12:39:07.661Z,89.90
2018-07-24T12:41:36.160Z,90.00
2018-07-24T12:44:04.644Z,89.30
2018-07-24T12:46:33.676Z,90.40
2018-07-24T12:49:02.073Z,89.20
2018-07-24T12:51:31.204Z,88.10
2018-07-24T12:53:59.665Z,87.50
2018-07-24T12:56:28.159Z,88.90
2018-07-24T12:58:56.591Z,86.20
2018-07-24T13:01:24.987Z,89.30
2018-07-24T13:03:53.411Z,89.20
2018-07-24T13:06:21.888Z,88.50
2018-07-24T13:08:50.453Z,88.50
2018-07-24T13:11:18.863Z,87.30
2018-07-24T13:13:47.299Z,86.40
2018-07-24T13:16:15.699Z,87.30
2018-07-24T13:18:44.121Z,87.10
2018-07-24T13:21:12.496Z,86.20
2018-07-24T13:23:40.966Z,86.30
2018-07-24T13:26:09.456Z,85.50
2018-07-24T13:28:37.973Z,87.00
2018-07-24T13:31:06.489Z,85.90
2018-07-24T13:33:34.902Z,86.90
2018-07-24T13:36:03.361Z,86.50
2018-07-24T13:38:31.776Z,85.80
2018-07-24T13:41:00.189Z,86.00
2018-07-24T13:43:28.683Z,85.30
2018-07-24T13:45:57.097Z,85.40
2018-07-24T13:48:25.572Z,85.10
2018-07-24T13:50:54.037Z,85.40
2018-07-24T13:53:22.533Z,83.40
2018-07-24T13:55:50.968Z,84.50
2018-07-24T14:00:48.229Z,84.20
2018-07-24T14:03:16.673Z,83.80
2018-07-24T14:05:45.196Z,82.40
2018-07-24T14:08:13.727Z,83.80
2018-07-24T14:10:42.233Z,84.10
2018-07-24T14:13:10.651Z,82.20
2018-07-24T14:15:39.060Z,82.00
2018-07-24T14:18:07.437Z,82.90
2018-07-24T14:20:35.844Z,84.30
2018-07-24T14:23:04.312Z,83.60
2018-07-24T14:25:32.729Z,82.80
2018-07-24T14:28:01.158Z,82.30
2018-07-24T14:30:29.608Z,84.20
2018-07-24T14:32:58.048Z,82.70
2018-07-24T14:35:26.456Z,84.90
2018-07-24T14:40:23.044Z,85.10
2018-07-24T14:42:51.431Z,83.80
2018-07-24T14:45:19.932Z,84.00
2018-07-24T14:47:48.352Z,84.70
2018-07-24T14:50:16.828Z,84.20
2018-07-24T14:55:13.361Z,84.30
2018-07-24T14:57:41.826Z,85.60
2018-07-24T15:00:10.276Z,85.90
2018-07-24T15:02:38.757Z,84.80
2018-07-24T15:05:07.477Z,83.40
2018-07-24T15:07:35.959Z,83.70
2018-07-24T15:10:04.728Z,83.00
2018-07-24T15:12:33.173Z,82.40
2018-07-24T15:15:01.720Z,82.40
2018-07-24T15:17:30.113Z,82.20
2018-07-24T15:19:58.571Z,81.80
2018-07-24T15:22:27.065Z,81.50
2018-07-24T15:24:55.483Z,81.70
2018-07-24T15:27:23.909Z,82.80
2018-07-24T15:29:52.312Z,81.20
2018-07-24T15:32:20.741Z,82.70
2018-07-24T15:34:49.282Z,82.30
2018-07-24T15:37:18.039Z,82.70
2018-07-24T15:39:46.540Z,82.70
2018-07-24T15:42:15.148Z,81.90
2018-07-24T15:44:43.588Z,80.00
2018-07-24T15:47:12.100Z,80.30
2018-07-24T15:49:40.455Z,79.10
2018-07-24T15:52:08.904Z,80.30
2018-07-24T15:54:37.592Z,79.00
2018-07-24T15:57:06.156Z,78.40
2018-07-24T15:59:34.641Z,79.00
2018-07-24T16:02:03.028Z,80.00
2018-07-24T16:04:31.466Z,80.70
2018-07-24T16:07:00.017Z,78.90
2018-07-24T16:09:28.449Z,80.10
2018-07-24T16:14:25.014Z,78.90
2018-07-24T16:16:53.496Z,78.20
2018-07-24T16:19:21.948Z,75.60
2018-07-24T16:21:50.376Z,77.60
2018-07-24T16:24:18.765Z,76.90
2018-07-24T16:26:47.170Z,77.40
2018-07-24T16:29:15.549Z,78.20
2018-07-24T16:31:44.489Z,78.40
2018-07-24T16:34:12.953Z,77.70
2018-07-24T16:36:41.364Z,76.90
2018-07-24T16:39:11.129Z,75.70
2018-07-24T16:41:39.897Z,75.50
2018-07-24T16:44:08.311Z,76.40
2018-07-24T16:46:36.767Z,75.70
2018-07-24T16:49:05.460Z,76.60
2018-07-24T16:51:33.887Z,76.90
2018-07-24T16:54:02.326Z,76.60
2018-07-24T16:56:30.989Z,78.60
2018-07-24T16:58:59.472Z,78.10
2018-07-24T17:01:28.034Z,78.10
2018-07-24T17:03:56.493Z,77.90
2018-07-24T17:06:24.908Z,75.80
2018-07-24T17:08:53.328Z,78.20
2018-07-24T17:11:21.761Z,77.80
2018-07-24T17:13:50.174Z,77.40
2018-07-24T17:16:18.849Z,76.70
2018-07-24T17:18:47.304Z,75.50
2018-07-24T17:21:15.740Z,75.40
2018-07-24T17:23:44.277Z,76.60
2018-07-24T17:26:13.001Z,76.40
2018-07-24T17:28:41.387Z,75.90
2018-07-24T17:31:09.917Z,75.90
2018-07-24T17:33:38.356Z,76.40
2018-07-24T17:38:34.943Z,76.80
2018-07-24T17:41:03.530Z,76.30
2018-07-24T17:43:31.904Z,77.30
2018-07-24T17:46:00.391Z,76.10
2018-07-24T17:48:28.985Z,78.10
2018-07-24T17:50:57.476Z,77.10
2018-07-24T17:53:26.407Z,76.90
2018-07-24T17:55:54.864Z,79.20
2018-07-24T17:58:23.296Z,79.30
2018-07-24T18:00:51.772Z,77.40
2018-07-24T18:03:20.197Z,79.30
2018-07-24T18:05:48.780Z,79.00
2018-07-24T18:08:17.191Z,79.90
2018-07-24T18:10:46.044Z,80.00
2018-07-24T18:13:14.500Z,80.60
2018-07-24T18:15:42.991Z,79.70
2018-07-24T18:18:11.380Z,80.70
2018-07-24T18:20:39.838Z,79.20
2018-07-24T18:23:08.362Z,81.40
2018-07-24T18:25:36.775Z,79.20
2018-07-24T18:28:05.224Z,80.90
2018-07-24T18:30:33.717Z,80.70
2018-07-24T18:33:02.269Z,81.20
2018-07-24T18:35:30.804Z,81.80
2018-07-24T18:37:59.325Z,82.50
2018-07-24T18:40:27.804Z,83.30
2018-07-24T18:42:56.224Z,83.90
2018-07-24T18:45:24.816Z,84.70
2018-07-24T18:47:53.234Z,85.70
2018-07-24T18:50:21.684Z,85.00
2018-07-24T18:52:50.084Z,85.60
2018-07-24T18:55:18.571Z,84.80
2018-07-24T18:57:47.055Z,85.90
2018-07-24T19:00:15.572Z,87.30
2018-07-24T19:02:44.020Z,85.20
2018-07-24T19:05:12.536Z,87.60
2018-07-24T19:07:40.924Z,88.00
2018-07-24T19:10:09.547Z,91.30
2018-07-24T19:12:37.946Z,89.70
2018-07-24T19:15:07.140Z,91.00
2018-07-24T19:17:35.766Z,90.80
2018-07-24T19:20:05.103Z,91.20
2018-07-24T19:22:33.576Z,91.30
2018-07-24T19:25:02.045Z,92.60
2018-07-24T19:27:30.589Z,92.40
2018-07-24T19:32:27.104Z,93.90
2018-07-24T19:34:55.556Z,93.70
2018-07-24T19:37:23.938Z,93.80
2018-07-24T19:39:52.395Z,93.70
2018-07-24T19:42:21.007Z,93.70
2018-07-24T19:44:49.507Z,94.40
2018-07-24T19:47:17.947Z,94.70
2018-07-24T19:49:46.410Z,95.10
2018-07-24T19:52:14.840Z,94.90
2018-07-24T19:54:43.442Z,95.20
2018-07-24T19:57:11.892Z,95.10
2018-07-24T19:59:40.363Z,96.10
2018-07-24T20:02:08.866Z,96.80
2018-07-24T20:04:37.743Z,96.50
2018-07-24T20:07:06.394Z,96.20
2018-07-24T20:09:34.918Z,97.00
2018-07-24T20:12:03.398Z,96.40
2018-07-24T20:14:31.917Z,98.20
2018-07-24T20:17:00.378Z,98.20
2018-07-24T20:19:28.876Z,97.70
2018-07-24T20:21:57.444Z,97.80
2018-07-24T20:24:25.900Z,97.30
2018-07-24T20:26:54.559Z,97.50
2018-07-24T20:29:22.972Z,97.80
2018-07-24T20:31:51.493Z,97.40
2018-07-24T20:34:19.923Z,98.30
2018-07-24T20:36:48.616Z,98.30
2018-07-24T20:39:17.144Z,98.40
2018-07-24T20:41:45.677Z,99.00
2018-07-24T20:44:14.088Z,98.90
2018-07-24T20:46:42.559Z,99.50
2018-07-24T20:49:11.076Z,99.80
2018-07-24T20:51:39.582Z,99.90
2018-07-24T20:54:08.048Z,99.90
2018-07-24T20:56:36.516Z,99.90
2018-07-24T20:59:05.016Z,99.90
2018-07-24T21:01:33.645Z,99.90
2018-07-24T21:04:02.120Z,99.90
2018-07-24T21:06:30.870Z,99.90
2018-07-24T21:08:59.307Z,99.90
2018-07-24T21:11:27.754Z,99.90
2018-07-24T21:13:56.176Z,99.90
2018-07-24T21:16:24.597Z,99.90
2018-07-24T21:18:53.045Z,99.90
2018-07-24T21:21:21.528Z,99.90
2018-07-24T21:23:49.921Z,99.90
2018-07-24T21:26:18.380Z,99.90
2018-07-24T21:28:46.984Z,99.90
2018-07-24T21:31:15.442Z,99.90
2018-07-24T21:33:43.872Z,99.90
2018-07-24T21:36:12.320Z,99.90
2018-07-24T21:38:40.743Z,99.90
2018-07-24T21:41:09.200Z,99.90
2018-07-24T21:43:37.580Z,99.90
2018-07-24T21:46:06.454Z,99.90
2018-07-24T21:48:34.888Z,99.90
2018-07-24T21:51:03.325Z,99.90
2018-07-24T21:53:31.865Z,99.90
2018-07-24T21:56:00.277Z,99.90
2018-07-24T21:58:28.708Z,99.90
2018-07-24T22:01:02.614Z,99.90
2018-07-24T22:03:31.032Z,99.90
2018-07-24T22:05:59.631Z,99.90
2018-07-24T22:08:28.076Z,99.90
2018-07-24T22:10:56.506Z,99.90
2018-07-24T22:13:24.976Z,99.90
2018-07-24T22:15:53.456Z,99.90
2018-07-24T22:18:21.893Z,99.90
2018-07-24T22:20:50.382Z,99.90
2018-07-24T22:23:18.885Z,99.90
2018-07-24T22:25:47.301Z,99.90
2018-07-24T22:28:15.777Z,99.90
2018-07-24T22:30:44.199Z,99.90
2018-07-24T22:33:12.584Z,99.90
2018-07-24T22:35:41.048Z,99.90
2018-07-24T22:38:09.457Z,99.90
2018-07-24T22:40:37.919Z,99.90
2018-07-24T22:43:06.571Z,99.90
2018-07-24T22:45:34.992Z,99.90
2018-07-24T22:48:03.392Z,99.90
2018-07-24T22:50:31.902Z,99.90
2018-07-24T22:53:00.516Z,99.90
2018-07-24T22:55:28.929Z,99.90
2018-07-24T22:57:57.396Z,99.90
2018-07-24T23:00:25.811Z,99.90
2018-07-24T23:02:54.266Z,99.90
2018-07-24T23:05:22.669Z,99.90
2018-07-24T23:07:51.156Z,99.90
2018-07-24T23:10:19.564Z,99.90
2018-07-24T23:12:48.048Z,99.90
2018-07-24T23:15:16.493Z,99.90
2018-07-24T23:17:44.916Z,99.90
2018-07-24T23:20:13.314Z,99.90
2018-07-24T23:22:41.829Z,99.90
2018-07-24T23:25:10.258Z,99.90
2018-07-24T23:27:38.636Z,99.90
2018-07-24T23:30:07.167Z,99.90
2018-07-24T23:32:35.560Z,99.90
2018-07-24T23:35:04.516Z,99.90
2018-07-24T23:37:32.949Z,99.90
2018-07-24T23:40:01.304Z,99.90
2018-07-24T23:42:29.732Z,99.90
2018-07-24T23:44:58.173Z,99.90
2018-07-24T23:49:54.756Z,99.90
2018-07-24T23:52:23.137Z,99.90
2018-07-24T23:54:51.722Z,99.90
2018-07-24T23:57:20.144Z,99.90
2018-07-24T23:59:48.609Z,99.90
